createdAt,value
2022-08-11T00:01:49.394Z,31.44
2022-08-11T00:04:16.088Z,31.47
2022-08-11T00:06:42.881Z,31.43
2022-08-11T00:09:16.861Z,31.51
2022-08-11T00:11:48.480Z,31.52
2022-08-11T00:14:37.748Z,31.50
2022-08-11T00:17:06.541Z,31.50
2022-08-11T00:20:11.758Z,31.52
2022-08-11T00:22:22.007Z,31.53
2022-08-11T00:24:53.508Z,31.53
2022-08-11T00:27:35.333Z,31.54
2022-08-11T00:30:02.087Z,31.54
2022-08-11T00:32:28.913Z,31.59
2022-08-11T00:35:55.473Z,31.59
2022-08-11T00:37:46.264Z,31.61
2022-08-11T00:40:24.117Z,31.59
2022-08-11T00:43:10.797Z,31.58
2022-08-11T00:46:09.584Z,31.64
2022-08-11T00:49:26.157Z,31.63
2022-08-11T00:52:17.891Z,31.65
2022-08-11T00:55:14.327Z,31.66
2022-08-11T00:57:55.824Z,31.68
2022-08-11T01:00:25.793Z,31.69
2022-08-11T01:03:06.102Z,31.71
2022-08-11T01:06:00.918Z,31.70
2022-08-11T01:08:41.920Z,31.72
2022-08-11T01:11:55.330Z,31.72
2022-08-11T01:14:47.845Z,31.77
2022-08-11T01:17:26.586Z,31.75
2022-08-11T01:20:44.750Z,31.74
2022-08-11T01:23:43.097Z,31.78
2022-08-11T01:26:43.713Z,31.79
2022-08-11T01:29:29.864Z,31.80
2022-08-11T01:32:33.299Z,31.81
2022-08-11T01:35:34.283Z,31.84
2022-08-11T01:38:22.689Z,31.84
2022-08-11T01:41:20.673Z,31.86
2022-08-11T01:44:39.726Z,31.88
2022-08-11T01:47:09.029Z,31.88
2022-08-11T01:50:08.447Z,31.88
2022-08-11T01:52:49.131Z,31.92
2022-08-11T01:55:25.122Z,31.92
2022-08-11T01:57:56.895Z,31.96
2022-08-11T02:00:26.450Z,31.95
2022-08-11T02:02:59.360Z,31.96
2022-08-11T02:05:45.011Z,31.96
2022-08-11T02:08:50.727Z,31.98
2022-08-11T02:11:37.485Z,31.98
2022-08-11T02:14:11.948Z,31.96
2022-08-11T02:16:45.998Z,31.98
2022-08-11T02:19:45.293Z,31.98
2022-08-11T02:22:50.557Z,31.99
2022-08-11T02:25:47.405Z,32.01
2022-08-11T02:28:16.874Z,32.02
2022-08-11T02:32:15.401Z,32.02
2022-08-11T02:34:20.273Z,32.03
2022-08-11T02:36:56.450Z,32.07
2022-08-11T02:39:23.059Z,32.06
2022-08-11T02:42:32.086Z,32.06
2022-08-11T02:45:33.659Z,32.09
2022-08-11T02:48:22.972Z,32.08
2022-08-11T02:51:14.183Z,32.08
2022-08-11T02:53:58.010Z,32.09
2022-08-11T02:56:47.328Z,32.10
2022-08-11T02:59:52.432Z,32.13
2022-08-11T03:02:44.115Z,32.14
2022-08-11T03:05:37.502Z,32.13
2022-08-11T03:08:06.763Z,32.17
2022-08-11T03:10:46.017Z,32.18
2022-08-11T03:13:43.552Z,32.17
2022-08-11T03:16:46.319Z,32.19
2022-08-11T03:19:15.933Z,32.18
2022-08-11T03:22:29.133Z,32.21
2022-08-11T03:25:01.741Z,32.22
2022-08-11T03:27:49.803Z,32.21
2022-08-11T03:30:43.288Z,32.20
2022-08-11T03:33:37.767Z,32.22
2022-08-11T03:36:07.020Z,32.23
2022-08-11T03:38:45.459Z,32.25
2022-08-11T03:42:02.907Z,32.27
2022-08-11T03:44:37.369Z,32.28
2022-08-11T03:47:32.059Z,32.28
2022-08-11T03:50:31.820Z,32.32
2022-08-11T03:53:02.698Z,32.28
2022-08-11T03:55:57.243Z,32.29
2022-08-11T03:58:33.608Z,32.33
2022-08-11T04:01:14.569Z,32.33
2022-08-11T04:03:41.023Z,32.35
2022-08-11T04:06:25.431Z,32.36
2022-08-11T04:09:04.212Z,32.39
2022-08-11T04:11:42.842Z,32.39
2022-08-11T04:15:00.567Z,32.40
2022-08-11T04:17:35.948Z,32.41
2022-08-11T04:20:11.682Z,32.41
2022-08-11T04:24:34.606Z,32.41
2022-08-11T04:26:16.217Z,32.40
2022-08-11T04:29:10.514Z,32.43
2022-08-11T04:32:06.415Z,32.45
2022-08-11T04:34:32.826Z,32.45
2022-08-11T04:37:34.746Z,32.46
2022-08-11T04:40:35.244Z,32.45
2022-08-11T04:43:23.501Z,32.45
2022-08-11T04:46:15.078Z,32.47
2022-08-11T04:49:25.845Z,32.46
2022-08-11T04:52:38.452Z,32.47
2022-08-11T04:55:49.279Z,32.46
2022-08-11T04:59:19.875Z,32.46
2022-08-11T05:02:16.922Z,32.45
2022-08-11T05:05:18.011Z,32.45
2022-08-11T05:08:24.030Z,32.47
2022-08-11T05:11:28.152Z,32.47
2022-08-11T05:14:31.721Z,32.47
2022-08-11T05:17:25.802Z,32.47
2022-08-11T05:20:10.986Z,32.45
2022-08-11T05:22:56.162Z,32.44
2022-08-11T05:26:43.688Z,32.46
2022-08-11T05:28:54.495Z,32.46
2022-08-11T05:31:43.629Z,32.29
2022-08-11T05:34:31.553Z,32.29
2022-08-11T05:37:25.270Z,32.24
2022-08-11T05:40:12.442Z,32.25
2022-08-11T05:43:01.256Z,32.22
2022-08-11T05:45:58.284Z,32.22
2022-08-11T05:48:53.963Z,32.27
2022-08-11T05:51:51.908Z,32.29
2022-08-11T05:54:40.435Z,32.13
2022-08-11T05:57:07.380Z,32.16
2022-08-11T05:59:34.295Z,32.15
2022-08-11T06:02:05.984Z,32.12
2022-08-11T06:04:32.741Z,32.09
2022-08-11T06:07:08.905Z,32.09
2022-08-11T06:09:37.119Z,32.11
2022-08-11T06:12:32.182Z,32.04
2022-08-11T06:15:02.176Z,32.13
2022-08-11T06:17:39.110Z,32.10
2022-08-11T06:20:12.318Z,32.14
2022-08-11T06:22:39.576Z,32.33
2022-08-11T06:25:06.818Z,32.42
2022-08-11T06:27:34.629Z,32.26
2022-08-11T06:30:01.212Z,32.25
2022-08-11T06:32:36.040Z,32.15
2022-08-11T06:35:31.071Z,32.27
2022-08-11T06:38:09.438Z,32.16
2022-08-11T06:41:06.104Z,31.90
2022-08-11T06:43:35.937Z,32.09
2022-08-11T06:46:06.014Z,31.93
2022-08-11T06:48:33.051Z,31.82
2022-08-11T06:51:14.802Z,31.73
2022-08-11T06:54:03.259Z,32.12
2022-08-11T06:57:06.657Z,31.93
2022-08-11T06:59:58.735Z,31.85
2022-08-11T07:02:31.199Z,31.87
2022-08-11T07:05:08.274Z,31.95
2022-08-11T07:08:34.823Z,32.07
2022-08-11T07:11:42.543Z,32.28
2022-08-11T07:14:27.369Z,31.54
2022-08-11T07:16:53.952Z,32.08
2022-08-11T07:19:44.598Z,31.80
2022-08-11T07:22:29.899Z,32.12
2022-08-11T07:25:32.708Z,31.58
2022-08-11T07:28:21.847Z,31.53
2022-08-11T07:30:51.845Z,31.21
2022-08-11T07:34:06.463Z,31.64
2022-08-11T07:36:12.760Z,31.61
2022-08-11T07:38:47.200Z,31.25
2022-08-11T07:41:15.359Z,31.19
2022-08-11T07:43:43.084Z,31.72
2022-08-11T07:46:28.379Z,31.04
2022-08-11T07:49:13.777Z,30.56
2022-08-11T07:52:01.276Z,30.68
2022-08-11T07:54:28.162Z,30.33
2022-08-11T07:57:09.048Z,30.04
2022-08-11T08:00:05.333Z,30.84
2022-08-11T08:02:50.492Z,30.31
2022-08-11T08:05:36.113Z,30.32
2022-08-11T08:08:21.375Z,30.29
2022-08-11T08:11:06.531Z,30.36
2022-08-11T08:13:52.116Z,30.31
2022-08-11T08:16:37.280Z,30.22
2022-08-11T08:19:03.967Z,30.35
2022-08-11T08:21:31.857Z,30.29
2022-08-11T08:23:58.683Z,30.36
2022-08-11T08:26:51.291Z,30.43
2022-08-11T08:29:37.092Z,30.37
2022-08-11T08:32:04.138Z,30.31
2022-08-11T08:34:32.349Z,30.40
2022-08-11T08:37:00.277Z,30.39
2022-08-11T08:39:30.189Z,30.40
2022-08-11T08:41:57.385Z,30.37
2022-08-11T08:44:41.404Z,30.40
2022-08-11T08:47:10.769Z,30.44
2022-08-11T08:49:40.503Z,30.39
2022-08-11T08:52:21.097Z,30.30
2022-08-11T08:54:56.495Z,30.18
2022-08-11T08:57:23.383Z,30.14
2022-08-11T08:59:51.690Z,30.08
2022-08-11T09:02:33.687Z,30.08
2022-08-11T09:05:02.782Z,29.81
2022-08-11T09:07:34.002Z,29.83
2022-08-11T09:10:07.499Z,29.77
2022-08-11T09:12:46.414Z,29.54
2022-08-11T09:15:13.178Z,29.49
2022-08-11T09:17:51.656Z,29.15
2022-08-11T09:20:22.690Z,29.11
2022-08-11T09:26:18.149Z,28.76
2022-08-11T09:28:45.431Z,28.46
2022-08-11T09:31:13.414Z,28.33
2022-08-11T09:33:41.257Z,28.19
2022-08-11T09:36:28.221Z,28.07
2022-08-11T09:39:13.432Z,27.95
2022-08-11T09:42:01.156Z,27.84
2022-08-11T09:44:45.643Z,28.00
2022-08-11T09:47:15.409Z,28.00
2022-08-11T09:49:45.399Z,28.28
2022-08-11T09:52:14.304Z,28.27
2022-08-11T09:54:48.258Z,28.26
2022-08-11T09:57:33.583Z,28.32
2022-08-11T10:00:12.211Z,28.42
2022-08-11T10:02:42.531Z,28.73
2022-08-11T10:05:27.770Z,29.01
2022-08-11T10:07:54.338Z,29.16
2022-08-11T10:10:22.734Z,28.95
2022-08-11T10:13:00.044Z,28.97
2022-08-11T10:15:35.671Z,29.10
2022-08-11T10:18:24.885Z,28.96
2022-08-11T10:20:52.439Z,29.00
2022-08-11T10:24:00.405Z,29.03
2022-08-11T10:26:44.587Z,29.25
2022-08-11T10:29:36.802Z,29.38
2022-08-11T10:32:23.053Z,29.19
2022-08-11T10:34:58.021Z,29.11
2022-08-11T10:37:24.910Z,29.35
2022-08-11T10:40:15.909Z,29.42
2022-08-11T10:43:01.907Z,29.54
2022-08-11T10:46:05.768Z,29.42
2022-08-11T10:48:36.274Z,29.66
2022-08-11T10:51:15.060Z,29.65
2022-08-11T10:54:04.722Z,29.56
2022-08-11T10:56:53.609Z,29.67
2022-08-11T10:59:20.218Z,29.50
2022-08-11T11:01:46.982Z,29.59
2022-08-11T11:04:50.975Z,29.93
2022-08-11T11:07:20.693Z,30.31
2022-08-11T11:09:51.706Z,30.34
2022-08-11T11:12:37.057Z,30.08
2022-08-11T11:15:23.148Z,29.82
2022-08-11T11:18:15.749Z,29.74
2022-08-11T11:20:47.642Z,29.51
2022-08-11T11:23:23.982Z,29.69
2022-08-11T11:26:15.364Z,29.19
2022-08-11T11:29:25.190Z,29.17
2022-08-11T11:31:54.365Z,29.34
2022-08-11T11:34:36.867Z,29.22
2022-08-11T11:37:19.912Z,29.28
2022-08-11T11:39:46.602Z,29.44
2022-08-11T11:42:13.365Z,29.30
2022-08-11T11:44:40.041Z,29.66
2022-08-11T11:47:06.622Z,29.30
2022-08-11T11:49:33.334Z,29.00
2022-08-11T11:51:59.978Z,29.20
2022-08-11T11:54:28.927Z,29.41
2022-08-11T11:56:57.026Z,29.51
2022-08-11T11:59:43.814Z,29.63
2022-08-11T12:02:11.881Z,29.13
2022-08-11T12:04:41.322Z,29.11
2022-08-11T12:07:26.504Z,29.74
2022-08-11T12:09:53.078Z,29.90
2022-08-11T12:12:38.165Z,29.99
2022-08-11T12:15:05.230Z,30.00
2022-08-11T12:17:31.863Z,29.99
2022-08-11T12:19:58.746Z,29.84
2022-08-11T12:22:47.061Z,29.81
2022-08-11T12:25:32.551Z,29.82
2022-08-11T12:27:59.143Z,29.84
2022-08-11T12:30:25.800Z,29.90
2022-08-11T12:32:52.529Z,29.82
2022-08-11T12:35:19.104Z,29.85
2022-08-11T12:37:48.253Z,29.89
2022-08-11T12:41:11.907Z,29.89
2022-08-11T12:43:56.408Z,29.89
2022-08-11T12:46:24.771Z,29.93
2022-08-11T12:49:15.016Z,29.99
2022-08-11T12:52:12.839Z,30.04
2022-08-11T12:54:57.378Z,30.14
2022-08-11T12:58:00.544Z,30.21
2022-08-11T13:00:45.870Z,30.22
2022-08-11T13:03:31.168Z,30.25
2022-08-11T13:05:59.018Z,30.04
2022-08-11T13:08:26.516Z,30.21
2022-08-11T13:11:13.563Z,30.18
2022-08-11T13:13:52.587Z,30.22
2022-08-11T13:16:24.113Z,30.24
2022-08-11T13:18:50.915Z,30.24
2022-08-11T13:21:20.982Z,30.26
2022-08-11T13:24:00.665Z,30.23
2022-08-11T13:26:43.690Z,30.23
2022-08-11T13:29:19.015Z,30.22
2022-08-11T13:31:46.085Z,30.19
2022-08-11T13:34:12.987Z,30.12
2022-08-11T13:36:40.781Z,30.22
2022-08-11T13:39:07.374Z,30.19
2022-08-11T13:41:40.694Z,30.57
2022-08-11T13:44:12.051Z,30.47
2022-08-11T13:46:39.152Z,30.22
2022-08-11T13:49:11.281Z,30.39
2022-08-11T13:51:38.380Z,30.28
2022-08-11T13:54:06.689Z,30.30
2022-08-11T13:56:33.974Z,30.37
2022-08-11T13:59:01.511Z,30.37
2022-08-11T14:02:20.020Z,30.32
2022-08-11T14:04:30.440Z,30.37
2022-08-11T14:07:00.914Z,30.41
2022-08-11T14:09:28.901Z,30.33
2022-08-11T14:12:23.261Z,30.33
2022-08-11T14:14:54.307Z,30.35
2022-08-11T14:17:47.211Z,30.35
2022-08-11T14:20:38.390Z,30.35
2022-08-11T14:22:56.512Z,30.34
2022-08-11T14:25:25.125Z,30.34
2022-08-11T14:28:32.304Z,30.34
2022-08-11T14:31:01.565Z,30.34
2022-08-11T14:33:58.618Z,30.32
2022-08-11T14:36:15.319Z,30.29
2022-08-11T14:38:41.924Z,30.28
2022-08-11T14:41:27.315Z,30.31
2022-08-11T14:44:14.719Z,30.28
2022-08-11T14:47:00.591Z,30.28
2022-08-11T14:49:27.587Z,30.26
2022-08-11T14:51:55.090Z,30.28
2022-08-11T14:54:44.484Z,30.27
2022-08-11T14:57:11.097Z,30.27
2022-08-11T14:59:37.953Z,30.27
2022-08-11T15:02:23.583Z,30.31
2022-08-11T15:04:51.044Z,30.32
2022-08-11T15:07:17.730Z,30.31
2022-08-11T15:10:09.663Z,30.32
2022-08-11T15:12:33.260Z,30.33
2022-08-11T15:15:19.773Z,30.37
2022-08-11T15:17:48.007Z,30.34
2022-08-11T15:20:36.147Z,30.36
2022-08-11T15:23:22.046Z,30.37
2022-08-11T15:25:49.888Z,30.40
2022-08-11T15:28:35.062Z,30.36
2022-08-11T15:31:20.209Z,30.38
2022-08-11T15:34:05.485Z,30.39
2022-08-11T15:36:50.664Z,30.40
2022-08-11T15:39:27.470Z,30.43
2022-08-11T15:42:26.516Z,30.44
2022-08-11T15:45:14.779Z,30.44
2022-08-11T15:47:44.562Z,30.44
2022-08-11T15:50:17.904Z,30.47
2022-08-11T15:53:12.850Z,30.46
2022-08-11T15:55:39.427Z,30.47
2022-08-11T15:58:26.347Z,30.51
2022-08-11T16:01:11.555Z,30.47
2022-08-11T16:04:09.815Z,30.46
2022-08-11T16:07:00.129Z,30.46
2022-08-11T16:09:45.255Z,30.48
2022-08-11T16:12:26.547Z,30.49
2022-08-11T16:15:13.699Z,30.52
2022-08-11T16:17:49.031Z,30.52
2022-08-11T16:20:16.496Z,30.53
2022-08-11T16:23:00.373Z,30.52
2022-08-11T16:27:01.614Z,30.53
2022-08-11T16:28:15.659Z,30.48
2022-08-11T16:30:43.825Z,30.51
2022-08-11T16:33:22.590Z,30.52
2022-08-11T16:36:15.577Z,30.55
2022-08-11T16:38:42.140Z,30.58
2022-08-11T16:41:13.937Z,30.57
2022-08-11T16:44:01.636Z,30.59
2022-08-11T16:46:46.805Z,30.58
2022-08-11T16:49:20.271Z,30.58
2022-08-11T16:51:46.839Z,30.63
2022-08-11T16:54:13.589Z,30.56
2022-08-11T16:56:51.348Z,30.59
2022-08-11T16:59:24.320Z,30.63
2022-08-11T17:01:56.127Z,30.62
2022-08-11T17:04:55.225Z,30.64
2022-08-11T17:07:43.190Z,30.64
2022-08-11T17:10:58.797Z,30.67
2022-08-11T17:13:40.624Z,30.66
2022-08-11T17:16:12.804Z,30.71
2022-08-11T17:18:44.902Z,30.70
2022-08-11T17:21:20.611Z,30.73
2022-08-11T17:23:51.939Z,30.73
2022-08-11T17:26:56.394Z,30.72
2022-08-11T17:29:53.799Z,30.75
2022-08-11T17:32:56.830Z,30.77
2022-08-11T17:35:38.664Z,30.80
2022-08-11T17:38:21.562Z,30.78
2022-08-11T17:41:23.367Z,30.80
2022-08-11T17:44:08.825Z,30.80
2022-08-11T17:46:54.656Z,30.79
2022-08-11T17:49:21.091Z,30.82
2022-08-11T17:52:06.818Z,30.79
2022-08-11T17:54:53.363Z,30.80
2022-08-11T17:57:45.546Z,30.80
2022-08-11T18:00:14.398Z,30.77
2022-08-11T18:03:02.220Z,30.77
2022-08-11T18:05:33.996Z,30.78
2022-08-11T18:08:21.518Z,30.77
2022-08-11T18:11:06.659Z,30.80
2022-08-11T18:13:53.739Z,30.83
2022-08-11T18:16:38.970Z,30.85
2022-08-11T18:19:27.125Z,30.85
2022-08-11T18:22:31.895Z,30.87
2022-08-11T18:25:19.967Z,30.88
2022-08-11T18:28:05.473Z,30.90
2022-08-11T18:30:54.592Z,30.93
2022-08-11T18:34:07.313Z,30.92
2022-08-11T18:37:30.564Z,30.95
2022-08-11T18:40:18.661Z,31.00
2022-08-11T18:43:03.968Z,31.00
2022-08-11T18:45:51.295Z,30.99
2022-08-11T18:48:51.841Z,31.01
2022-08-11T18:51:37.373Z,31.01
2022-08-11T18:54:27.746Z,31.04
2022-08-11T18:57:12.956Z,31.02
2022-08-11T18:59:59.138Z,31.02
2022-08-11T19:02:48.712Z,31.05
2022-08-11T19:06:32.211Z,31.06
2022-08-11T19:08:40.527Z,31.08
2022-08-11T19:11:25.683Z,31.08
2022-08-11T19:14:11.333Z,31.10
2022-08-11T19:16:56.955Z,31.13
2022-08-11T19:19:46.812Z,31.14
2022-08-11T19:22:32.569Z,31.13
2022-08-11T19:25:19.954Z,31.14
2022-08-11T19:28:08.675Z,31.14
2022-08-11T19:30:53.844Z,31.16
2022-08-11T19:33:59.744Z,31.16
2022-08-11T19:36:45.116Z,31.17
2022-08-11T19:39:30.267Z,31.16
2022-08-11T19:42:15.447Z,31.19
2022-08-11T19:45:00.551Z,31.19
2022-08-11T19:47:46.375Z,31.19
2022-08-11T19:50:32.003Z,31.19
2022-08-11T19:53:18.387Z,31.17
2022-08-11T19:56:07.150Z,31.16
2022-08-11T19:58:54.102Z,31.19
2022-08-11T20:01:39.266Z,31.21
2022-08-11T20:04:44.369Z,31.23
2022-08-11T20:07:31.367Z,31.24
2022-08-11T20:10:17.107Z,31.25
2022-08-11T20:13:03.344Z,31.30
2022-08-11T20:15:49.472Z,31.28
2022-08-11T20:18:34.644Z,31.27
2022-08-11T20:21:25.301Z,31.25
2022-08-11T20:24:19.186Z,31.30
2022-08-11T20:27:04.556Z,31.33
2022-08-11T20:29:49.748Z,31.30
2022-08-11T20:32:34.963Z,31.31
2022-08-11T20:35:20.298Z,31.33
2022-08-11T20:38:06.885Z,31.32
2022-08-11T20:40:54.547Z,31.35
2022-08-11T20:44:08.056Z,31.39
2022-08-11T20:46:44.972Z,31.37
2022-08-11T20:49:41.307Z,31.35
2022-08-11T20:52:33.594Z,31.35
2022-08-11T20:55:25.679Z,31.35
2022-08-11T20:58:17.694Z,31.36
2022-08-11T21:01:03.936Z,31.36
2022-08-11T21:03:54.983Z,31.39
2022-08-11T21:06:45.806Z,31.39
2022-08-11T21:09:58.611Z,31.40
2022-08-11T21:12:36.370Z,31.42
2022-08-11T21:15:38.859Z,31.43
2022-08-11T21:18:29.375Z,31.40
2022-08-11T21:21:16.619Z,31.40
2022-08-11T21:24:01.911Z,31.40
2022-08-11T21:26:46.919Z,31.40
2022-08-11T21:29:32.067Z,31.40
2022-08-11T21:32:17.186Z,31.42
2022-08-11T21:35:02.516Z,31.40
2022-08-11T21:37:50.232Z,31.40
2022-08-11T21:40:36.900Z,31.43
2022-08-11T21:43:22.138Z,31.44
2022-08-11T21:46:07.408Z,31.46
2022-08-11T21:48:52.818Z,31.45
2022-08-11T21:51:37.939Z,31.44
2022-08-11T21:54:29.906Z,31.45
2022-08-11T21:57:15.023Z,31.46
2022-08-11T22:00:10.140Z,31.46
2022-08-11T22:02:56.748Z,31.49
2022-08-11T22:05:42.931Z,31.49
2022-08-11T22:08:28.040Z,31.47
2022-08-11T22:11:13.266Z,31.48
2022-08-11T22:14:05.938Z,31.46
2022-08-11T22:16:52.723Z,31.47
2022-08-11T22:19:37.600Z,31.47
2022-08-11T22:22:25.603Z,31.48
2022-08-11T22:25:16.718Z,31.45
2022-08-11T22:28:03.828Z,31.46
2022-08-11T22:30:49.053Z,31.46
2022-08-11T22:33:34.137Z,31.46
2022-08-11T22:36:18.952Z,31.48
2022-08-11T22:39:04.362Z,31.47
2022-08-11T22:41:49.983Z,31.48
2022-08-11T22:44:36.064Z,31.48
2022-08-11T22:47:21.944Z,31.47
2022-08-11T22:50:07.907Z,31.46
2022-08-11T22:52:53.019Z,31.45
2022-08-11T22:55:38.595Z,31.45
2022-08-11T22:58:24.770Z,31.47
2022-08-11T23:01:10.163Z,31.47
2022-08-11T23:03:55.262Z,31.48
2022-08-11T23:06:40.493Z,31.48
2022-08-11T23:09:25.882Z,31.47
2022-08-11T23:12:11.804Z,31.47
2022-08-11T23:14:58.206Z,31.49
2022-08-11T23:17:43.335Z,31.47
2022-08-11T23:20:35.442Z,31.48
2022-08-11T23:23:24.820Z,31.48
2022-08-11T23:26:10.777Z,31.53
2022-08-11T23:28:59.243Z,31.54
2022-08-11T23:31:50.949Z,31.56
2022-08-11T23:35:04.223Z,31.59
2022-08-11T23:37:52.851Z,31.66
2022-08-11T23:40:38.164Z,31.68
2022-08-11T23:43:23.589Z,31.73
2022-08-11T23:46:08.830Z,31.71
2022-08-11T23:48:55.206Z,31.72
2022-08-11T23:51:41.427Z,31.75
2022-08-11T23:54:27.674Z,31.77
2022-08-11T23:57:13.360Z,31.84
2022-08-11T23:59:58.862Z,31.81
